This is the latest recevied weather packets stored in our database for station/object DL1AIE-13. If no packets are shown the sender has not sent any weather packets the latest 10 day(s).
| Time | Temp. | Humidity | Pressure | Rain* | Wind** | Luminosity | Snow |
|---|---|---|---|---|---|---|---|
| 1777801642 | 20° C | 42% | 1015.1 hPa | 0 mm | - | - | - |
| 1777801038 | 20.56° C | 41% | 1015.3 hPa | 0 mm | - | - | - |
| 1777800455 | 20.56° C | 41% | 1015.4 hPa | 0 mm | - | - | - |
| 1777799850 | 20° C | 44% | 1015.6 hPa | 0 mm | - | - | - |
| 1777799247 | 19.44° C | 43% | 1015.6 hPa | 0 mm | - | - | - |
| 1777798643 | 20° C | 46% | 1015.5 hPa | 0 mm | - | - | - |
| 1777798039 | 20.56° C | 46% | 1015.4 hPa | 0 mm | - | - | - |
| 1777797436 | 18.89° C | 54% | 1015.7 hPa | 0 mm | - | - | - |
| 1777796852 | 18.33° C | 55% | 1015.7 hPa | 0 mm | - | - | - |
| 1777796249 | 17.22° C | 60% | 1015.6 hPa | 0 mm | - | - | - |
| 1777795646 | 16.11° C | 71% | 1015.8 hPa | 0 mm | - | - | - |
| 1777795042 | 15.56° C | 75% | 1015.9 hPa | 0 mm | - | - | - |
| 1777794439 | 15° C | 76% | 1015.9 hPa | 0 mm | - | - | - |
| 1777793855 | 14.44° C | 76% | 1016 hPa | 0 mm | - | - | - |
| 1777793252 | 16.67° C | 66% | 1015.5 hPa | 0 mm | - | - | - |
| 1777792648 | 15.56° C | 72% | 1015.8 hPa | 0 mm | - | - | - |
| 1777792045 | 14.44° C | 75% | 1015.9 hPa | 0 mm | - | - | - |
| 1777791442 | 14.44° C | 75% | 1016.1 hPa | 0 mm | - | - | - |
| 1777790838 | 13.89° C | 74% | 1016.2 hPa | 0 mm | - | - | - |
| 1777790255 | 13.33° C | 75% | 1016 hPa | 0 mm | - | - | - |
| 1777789651 | 12.78° C | 78% | 1015.8 hPa | 0 mm | - | - | - |
| 1777789048 | 12.22° C | 78% | 1015.7 hPa | 0 mm | - | - | - |
| 1777788444 | 12.22° C | 78% | 1015.5 hPa | 0 mm | - | - | - |
| 1777787840 | 12.22° C | 78% | 1015.4 hPa | 0 mm | - | - | - |
| 1777787237 | 11.67° C | 79% | 1015.3 hPa | 0 mm | - | - | - |
* Rain latest hour (hover to see other rain measurements)
** Current wind speed in m/s (hover to see current wind gust speed)